createdAt,value
2019-04-25T00:00:46.499Z,23.15
2019-04-25T00:03:15.882Z,19.37
2019-04-25T00:05:43.607Z,24.20
2019-04-25T00:08:11.595Z,23.80
2019-04-25T00:10:39.206Z,22.55
2019-04-25T00:13:06.719Z,27.02
2019-04-25T00:15:33.922Z,21.20
2019-04-25T00:18:02.328Z,22.13
2019-04-25T00:20:31.843Z,18.57
2019-04-25T00:23:09.571Z,21.93
2019-04-25T00:25:56.564Z,23.07
2019-04-25T00:28:23.653Z,18.82
2019-04-25T00:30:52.266Z,18.17
2019-04-25T00:33:21.480Z,21.80
2019-04-25T00:35:51.672Z,21.15
2019-04-25T00:38:18.902Z,21.90
2019-04-25T00:40:45.966Z,23.55
2019-04-25T00:43:13.097Z,20.80
2019-04-25T00:45:42.426Z,18.70
2019-04-25T00:48:09.321Z,23.25
2019-04-25T00:50:36.439Z,18.90
2019-04-25T00:53:03.490Z,20.65
2019-04-25T00:55:31.486Z,26.23
2019-04-25T00:58:01.349Z,24.80
2019-04-25T01:00:33.630Z,21.73
2019-04-25T01:03:03.326Z,21.97
2019-04-25T01:05:31.625Z,23.32
2019-04-25T01:07:58.972Z,21.15
2019-04-25T01:10:26.073Z,22.85
2019-04-25T01:12:53.340Z,17.20
2019-04-25T01:15:21.480Z,22.07
2019-04-25T01:17:48.884Z,21.35
2019-04-25T01:20:16.363Z,26.55
2019-04-25T01:22:44.092Z,24.37
2019-04-25T01:25:11.882Z,24.67
2019-04-25T01:27:39.085Z,25.90
2019-04-25T01:30:08.263Z,25.50
2019-04-25T01:32:37.223Z,25.77
2019-04-25T01:35:14.972Z,23.50
2019-04-25T01:37:43.926Z,20.85
2019-04-25T01:40:23.592Z,27.60
2019-04-25T01:42:53.906Z,24.72
2019-04-25T01:45:24.033Z,23.55
2019-04-25T01:47:54.323Z,23.85
2019-04-25T01:50:23.296Z,27.85
2019-04-25T01:52:50.677Z,25.68
2019-04-25T01:55:17.582Z,23.47
2019-04-25T01:57:45.354Z,23.20
2019-04-25T02:00:14.620Z,21.37
2019-04-25T02:02:43.434Z,19.75
2019-04-25T02:05:11.456Z,23.90
2019-04-25T02:07:38.520Z,21.68
2019-04-25T02:10:07.787Z,21.45
2019-04-25T02:12:43.696Z,27.87
2019-04-25T02:15:14.324Z,22.22
2019-04-25T02:17:41.530Z,21.55
2019-04-25T02:20:09.083Z,22.27
2019-04-25T02:22:36.166Z,22.07
2019-04-25T02:25:04.638Z,25.92
2019-04-25T02:27:31.856Z,24.12
2019-04-25T02:29:58.986Z,25.77
2019-04-25T02:32:26.146Z,23.25
2019-04-25T02:34:58.228Z,21.65
2019-04-25T02:37:22.295Z,23.23
2019-04-25T02:39:49.342Z,22.98
2019-04-25T02:42:16.866Z,27.45
2019-04-25T02:44:46.288Z,20.20
2019-04-25T02:47:24.904Z,24.53
2019-04-25T02:50:08.587Z,22.10
2019-04-25T02:52:39.238Z,26.57
2019-04-25T02:55:10.314Z,33.70
2019-04-25T02:57:35.660Z,34.55
2019-04-25T03:00:07.530Z,19.60
2019-04-25T03:02:36.910Z,27.95
2019-04-25T03:05:08.127Z,33.92
2019-04-25T03:07:34.640Z,31.37
2019-04-25T03:10:05.733Z,29.12
2019-04-25T03:12:35.904Z,28.85
2019-04-25T03:15:02.098Z,31.62
2019-04-25T03:17:30.222Z,26.12
2019-04-25T03:20:16.203Z,31.82
2019-04-25T03:22:44.425Z,40.67
2019-04-25T03:25:16.466Z,28.25
2019-04-25T03:27:41.157Z,30.75
2019-04-25T03:30:13.491Z,39.03
2019-04-25T03:32:38.074Z,38.10
2019-04-25T03:35:05.892Z,27.40
2019-04-25T03:37:35.262Z,26.55
2019-04-25T03:40:06.498Z,27.85
2019-04-25T03:42:33.944Z,33.53
2019-04-25T03:45:01.543Z,32.20
2019-04-25T03:47:28.930Z,28.55
2019-04-25T03:49:56.127Z,24.72
2019-04-25T03:52:23.909Z,26.73
2019-04-25T03:54:51.340Z,21.95
2019-04-25T03:57:18.391Z,26.82
2019-04-25T03:59:45.438Z,31.97
2019-04-25T04:02:13.563Z,28.90
2019-04-25T04:04:43.520Z,31.05
2019-04-25T04:07:11.389Z,32.13
2019-04-25T04:09:39.480Z,31.82
2019-04-25T04:12:06.513Z,30.70
2019-04-25T04:14:33.940Z,33.08
2019-04-25T04:17:05.115Z,37.58
2019-04-25T04:19:34.087Z,35.75
2019-04-25T04:22:03.132Z,33.33
2019-04-25T04:24:34.058Z,30.80
2019-04-25T04:27:09.545Z,27.15
2019-04-25T04:29:38.081Z,28.50
2019-04-25T04:32:06.807Z,27.50
2019-04-25T04:34:34.526Z,30.20
2019-04-25T04:37:01.643Z,24.55
2019-04-25T04:39:28.812Z,21.77
2019-04-25T04:41:55.751Z,22.05
2019-04-25T04:44:24.127Z,63.92
2019-04-25T04:46:53.934Z,59.67
2019-04-25T04:49:20.861Z,38.90
2019-04-25T04:51:48.129Z,27.45
2019-04-25T04:54:15.518Z,39.48
2019-04-25T04:56:43.806Z,28.38
2019-04-25T04:59:11.123Z,24.43
2019-04-25T05:01:56.783Z,25.02
2019-04-25T05:04:25.951Z,28.07
2019-04-25T05:06:55.239Z,22.80
2019-04-25T05:09:24.335Z,21.48
2019-04-25T05:11:51.324Z,32.65
2019-04-25T05:14:19.436Z,26.97
2019-04-25T05:16:46.471Z,25.77
2019-04-25T05:19:15.464Z,31.40
2019-04-25T05:21:43.570Z,30.30
2019-04-25T05:24:12.198Z,24.20
2019-04-25T05:26:40.442Z,28.02
2019-04-25T05:29:07.367Z,30.52
2019-04-25T05:31:45.609Z,28.95
2019-04-25T05:34:14.553Z,26.77
2019-04-25T05:36:41.748Z,30.72
2019-04-25T05:39:09.248Z,27.52
2019-04-25T05:41:51.321Z,27.05
2019-04-25T05:44:18.743Z,30.37
2019-04-25T05:46:45.879Z,28.47
2019-04-25T05:49:13.814Z,28.40
2019-04-25T05:51:40.950Z,31.23
2019-04-25T05:54:08.091Z,32.28
2019-04-25T05:56:35.155Z,30.00
2019-04-25T05:59:03.379Z,27.52
2019-04-25T06:01:32.092Z,30.25
2019-04-25T06:03:59.469Z,38.02
2019-04-25T06:06:26.313Z,35.33
2019-04-25T06:08:55.633Z,38.13
2019-04-25T06:11:25.086Z,35.98
2019-04-25T06:13:54.592Z,35.55
2019-04-25T06:16:25.730Z,23.75
2019-04-25T06:19:13.003Z,61.83
2019-04-25T06:21:29.816Z,64.95
2019-04-25T06:24:14.149Z,30.72
2019-04-25T06:26:43.387Z,34.08
2019-04-25T06:29:10.520Z,31.48
2019-04-25T06:31:37.523Z,28.75
2019-04-25T06:34:05.138Z,42.60
2019-04-25T06:36:32.094Z,35.45
2019-04-25T06:38:59.441Z,33.60
2019-04-25T06:41:27.064Z,28.00
2019-04-25T06:43:56.191Z,32.08
2019-04-25T06:46:25.817Z,29.87
2019-04-25T06:48:55.616Z,41.55
2019-04-25T06:51:26.029Z,30.85
2019-04-25T06:53:53.558Z,68.97
2019-04-25T06:56:21.189Z,34.20
2019-04-25T06:58:48.781Z,23.35
2019-04-25T07:01:16.029Z,24.77
2019-04-25T07:03:44.184Z,19.05
2019-04-25T07:06:12.964Z,24.15
2019-04-25T07:08:40.822Z,21.30
2019-04-25T07:11:08.053Z,21.52
2019-04-25T07:13:38.539Z,31.48
2019-04-25T07:16:04.797Z,32.70
2019-04-25T07:18:34.370Z,35.00
2019-04-25T07:21:00.806Z,21.35
2019-04-25T07:23:27.779Z,21.37
2019-04-25T07:25:56.937Z,34.75
2019-04-25T07:28:32.964Z,21.33
2019-04-25T07:31:19.905Z,16.95
2019-04-25T07:33:48.734Z,11.88
2019-04-25T07:36:15.858Z,19.82
2019-04-25T07:38:43.476Z,13.55
2019-04-25T07:41:10.753Z,22.17
2019-04-25T07:43:37.656Z,20.72
2019-04-25T07:46:04.966Z,16.93
2019-04-25T07:48:36.303Z,20.70
2019-04-25T07:51:01.094Z,17.60
2019-04-25T07:53:30.342Z,17.23
2019-04-25T07:55:57.568Z,17.00
2019-04-25T07:58:37.820Z,18.40
2019-04-25T08:00:57.144Z,18.77
2019-04-25T08:03:25.390Z,15.78
2019-04-25T08:05:53.394Z,20.48
2019-04-25T08:08:20.731Z,20.52
2019-04-25T08:10:57.777Z,15.40
2019-04-25T08:13:27.737Z,16.65
2019-04-25T08:16:01.041Z,12.82
2019-04-25T08:18:30.204Z,19.62
2019-04-25T08:20:57.774Z,14.28
2019-04-25T08:23:26.228Z,13.05
2019-04-25T08:25:54.417Z,14.98
2019-04-25T08:28:21.768Z,16.87
2019-04-25T08:30:48.774Z,12.23
2019-04-25T08:33:15.841Z,11.25
2019-04-25T08:36:02.994Z,12.70
2019-04-25T08:38:13.760Z,14.07
2019-04-25T08:40:44.124Z,10.95
2019-04-25T08:43:11.388Z,12.82
2019-04-25T08:45:38.558Z,15.88
2019-04-25T08:48:05.936Z,18.02
2019-04-25T08:50:39.475Z,13.58
2019-04-25T08:53:04.066Z,14.10
2019-04-25T08:55:45.610Z,11.83
2019-04-25T08:58:24.175Z,12.63
2019-04-25T09:01:05.711Z,15.50
2019-04-25T09:03:36.592Z,9.75
2019-04-25T09:06:03.971Z,13.65
2019-04-25T09:08:31.314Z,14.58
2019-04-25T09:10:58.496Z,13.60
2019-04-25T09:13:25.911Z,11.65
2019-04-25T09:15:54.063Z,14.90
2019-04-25T09:18:21.163Z,10.80
2019-04-25T09:20:48.239Z,14.10
2019-04-25T09:23:15.343Z,12.43
2019-04-25T09:25:44.456Z,14.10
2019-04-25T09:28:11.647Z,14.95
2019-04-25T09:30:38.730Z,9.65
2019-04-25T09:33:06.567Z,11.97
2019-04-25T09:35:36.042Z,11.28
2019-04-25T09:38:03.500Z,11.68
2019-04-25T09:40:30.797Z,11.30
2019-04-25T09:42:58.009Z,10.08
2019-04-25T09:45:33.794Z,14.13
2019-04-25T09:48:06.073Z,12.37
2019-04-25T09:50:41.470Z,16.45
2019-04-25T09:53:15.455Z,12.47
2019-04-25T09:59:27.311Z,14.30
2019-04-25T10:01:49.335Z,9.58
2019-04-25T10:04:16.701Z,10.10
2019-04-25T10:06:44.972Z,9.05
2019-04-25T10:09:15.700Z,13.53
2019-04-25T10:11:45.419Z,10.08
2019-04-25T10:14:26.267Z,8.98
2019-04-25T10:16:53.986Z,10.15
2019-04-25T10:19:21.053Z,9.83
2019-04-25T10:21:48.149Z,8.73
2019-04-25T10:24:16.842Z,8.75
2019-04-25T10:26:45.123Z,10.65
2019-04-25T10:29:12.605Z,7.55
2019-04-25T10:31:40.692Z,14.30
2019-04-25T10:34:07.853Z,9.08
2019-04-25T10:36:38.775Z,11.48
2019-04-25T10:39:10.785Z,9.18
2019-04-25T10:41:36.394Z,9.48
2019-04-25T10:44:04.048Z,12.70
2019-04-25T10:46:31.361Z,11.15
2019-04-25T10:48:58.904Z,12.73
2019-04-25T10:51:26.012Z,10.18
2019-04-25T10:53:53.919Z,14.68
2019-04-25T10:56:22.000Z,10.45
2019-04-25T10:58:49.101Z,10.30
2019-04-25T11:01:16.254Z,8.55
2019-04-25T11:03:57.469Z,9.18
2019-04-25T11:06:26.382Z,14.47
2019-04-25T11:08:55.494Z,13.00
2019-04-25T11:11:23.993Z,5.50
2019-04-25T11:13:54.229Z,12.58
2019-04-25T11:16:21.570Z,13.03
2019-04-25T11:18:49.576Z,7.25
2019-04-25T11:21:16.796Z,12.63
2019-04-25T11:23:46.147Z,15.53
2019-04-25T11:26:13.861Z,16.93
2019-04-25T11:31:21.155Z,21.42
2019-04-25T11:33:48.199Z,10.40
2019-04-25T11:36:15.353Z,6.55
2019-04-25T11:38:53.763Z,16.57
2019-04-25T11:41:22.178Z,10.80
2019-04-25T11:43:49.190Z,13.50
2019-04-25T11:46:16.498Z,9.63
2019-04-25T11:48:45.057Z,6.78
2019-04-25T11:51:13.755Z,10.88
2019-04-25T11:53:41.013Z,10.35
2019-04-25T11:56:08.005Z,6.25
2019-04-25T11:58:34.890Z,8.53
2019-04-25T12:01:03.390Z,10.40
2019-04-25T12:03:31.336Z,6.12
2019-04-25T12:05:58.431Z,9.58
2019-04-25T12:08:25.493Z,7.87
2019-04-25T12:10:53.890Z,10.35
2019-04-25T12:13:21.181Z,8.60
2019-04-25T12:15:48.260Z,6.70
2019-04-25T12:18:15.233Z,5.65
2019-04-25T12:20:44.092Z,5.78
2019-04-25T12:23:11.477Z,6.33
2019-04-25T12:25:39.526Z,7.92
2019-04-25T12:28:06.588Z,5.67
2019-04-25T12:30:39.512Z,5.83
2019-04-25T12:35:34.081Z,9.23
2019-04-25T12:38:03.477Z,7.72
2019-04-25T12:40:30.486Z,7.47
2019-04-25T12:42:57.491Z,4.83
2019-04-25T12:45:35.535Z,8.43
2019-04-25T12:48:04.755Z,4.37
2019-04-25T12:50:31.619Z,9.63
2019-04-25T12:52:58.705Z,6.45
2019-04-25T12:55:25.819Z,9.23
2019-04-25T12:57:54.921Z,7.67
2019-04-25T13:02:52.681Z,7.10
2019-04-25T13:05:20.130Z,10.32
2019-04-25T13:07:48.687Z,7.35
2019-04-25T13:10:16.083Z,7.72
2019-04-25T13:12:44.342Z,9.63
2019-04-25T13:15:13.077Z,19.17
2019-04-25T13:17:39.911Z,23.62
2019-04-25T13:20:07.569Z,17.62
2019-04-25T13:22:34.923Z,11.48
2019-04-25T13:25:03.448Z,7.90
2019-04-25T13:27:33.631Z,16.12
2019-04-25T13:30:18.247Z,9.93
2019-04-25T13:32:48.780Z,8.20
2019-04-25T13:35:20.419Z,5.17
2019-04-25T13:37:47.268Z,11.85
2019-04-25T13:40:16.930Z,8.43
2019-04-25T13:42:43.547Z,7.20
2019-04-25T13:45:10.695Z,9.63
2019-04-25T13:47:37.747Z,6.97
2019-04-25T13:50:07.789Z,9.05
2019-04-25T13:52:36.194Z,7.40
2019-04-25T13:55:04.613Z,7.33
2019-04-25T13:57:32.350Z,5.83
2019-04-25T13:59:59.516Z,10.68
2019-04-25T14:02:26.788Z,8.03
2019-04-25T14:04:54.098Z,8.05
2019-04-25T14:07:21.820Z,5.45
2019-04-25T14:09:48.872Z,7.47
2019-04-25T14:12:16.328Z,10.10
2019-04-25T14:14:44.143Z,6.45
2019-04-25T14:17:24.480Z,9.58
2019-04-25T14:19:56.088Z,5.62
2019-04-25T14:22:23.410Z,8.23
2019-04-25T14:24:50.582Z,10.13
2019-04-25T14:27:17.439Z,9.95
2019-04-25T14:29:45.376Z,9.15
2019-04-25T14:32:15.212Z,52.20
2019-04-25T14:34:43.276Z,20.32
2019-04-25T14:37:10.490Z,10.60
2019-04-25T14:39:37.893Z,6.30
2019-04-25T14:42:04.831Z,8.35
2019-04-25T14:44:32.036Z,7.58
2019-04-25T14:46:58.854Z,9.85
2019-04-25T14:49:26.307Z,9.03
2019-04-25T14:51:54.487Z,9.50
2019-04-25T14:54:23.262Z,6.47
2019-04-25T14:57:00.150Z,7.30
2019-04-25T14:59:27.309Z,6.90
2019-04-25T15:01:56.267Z,10.20
2019-04-25T15:04:24.058Z,8.20
2019-04-25T15:06:51.138Z,7.70
2019-04-25T15:09:18.478Z,11.05
2019-04-25T15:11:45.578Z,8.58
2019-04-25T15:14:12.573Z,10.28
2019-04-25T15:16:39.497Z,10.25
2019-04-25T15:19:06.884Z,8.50
2019-04-25T15:21:34.005Z,10.65
2019-04-25T15:24:01.152Z,14.60
2019-04-25T15:26:28.935Z,7.35
2019-04-25T15:28:57.562Z,8.28
2019-04-25T15:31:25.566Z,7.15
2019-04-25T15:47:34.040Z,15.08
2019-04-25T15:50:01.330Z,15.65
2019-04-25T15:52:29.051Z,12.18
2019-04-25T15:55:06.523Z,12.23
2019-04-25T15:57:25.007Z,11.85
2019-04-25T15:59:52.005Z,10.20
2019-04-25T16:02:19.520Z,14.93
2019-04-25T16:04:46.389Z,13.25
2019-04-25T16:07:13.538Z,15.40
2019-04-25T16:09:41.334Z,10.23
2019-04-25T16:12:08.875Z,12.18
2019-04-25T16:14:35.789Z,10.28
2019-04-25T16:17:02.878Z,13.08
2019-04-25T16:19:29.868Z,10.05
2019-04-25T16:21:56.731Z,15.85
2019-04-25T16:24:23.640Z,16.37
2019-04-25T16:26:50.832Z,11.30
2019-04-25T16:29:17.698Z,14.90
2019-04-25T16:31:44.772Z,16.70
2019-04-25T16:34:11.631Z,10.18
2019-04-25T16:36:39.681Z,19.42
2019-04-25T16:39:08.681Z,11.35
2019-04-25T16:41:35.861Z,10.53
2019-04-25T16:44:07.710Z,12.75
2019-04-25T16:46:34.877Z,13.28
2019-04-25T16:49:01.932Z,14.60
2019-04-25T16:51:29.308Z,13.93
2019-04-25T16:53:56.425Z,18.00
2019-04-25T16:56:23.659Z,11.22
2019-04-25T16:58:50.579Z,10.93
2019-04-25T17:01:17.944Z,17.05
2019-04-25T17:03:45.033Z,10.72
2019-04-25T17:06:12.281Z,19.50
2019-04-25T17:08:40.221Z,13.50
2019-04-25T17:11:07.535Z,17.40
2019-04-25T17:13:36.541Z,17.50
2019-04-25T17:16:18.025Z,16.55
2019-04-25T17:18:55.900Z,16.48
2019-04-25T17:21:23.680Z,19.12
2019-04-25T17:23:50.579Z,15.68
2019-04-25T17:26:18.282Z,19.35
2019-04-25T17:28:47.539Z,15.28
2019-04-25T17:31:23.623Z,11.05
2019-04-25T17:34:07.826Z,14.40
2019-04-25T17:36:40.770Z,22.62
2019-04-25T17:39:26.426Z,19.98
2019-04-25T17:41:53.581Z,15.00
2019-04-25T17:44:20.663Z,16.40
2019-04-25T17:46:47.597Z,16.12
2019-04-25T17:49:14.429Z,21.15
2019-04-25T17:51:41.988Z,17.92
2019-04-25T17:54:09.199Z,17.17
2019-04-25T17:56:36.423Z,18.37
2019-04-25T17:59:04.618Z,16.32
2019-04-25T18:01:32.895Z,23.30
2019-04-25T18:04:00.838Z,23.42
2019-04-25T18:06:27.682Z,18.98
2019-04-25T18:08:54.886Z,19.57
2019-04-25T18:11:21.860Z,18.27
2019-04-25T18:13:48.826Z,15.40
2019-04-25T18:16:21.239Z,20.75
2019-04-25T18:18:51.789Z,16.10
2019-04-25T18:21:18.656Z,17.48
2019-04-25T18:24:03.947Z,21.70
2019-04-25T18:26:50.920Z,23.07
2019-04-25T18:29:19.230Z,23.50
2019-04-25T18:31:46.371Z,16.45
2019-04-25T18:34:33.810Z,18.57
2019-04-25T18:37:19.757Z,20.23
2019-04-25T18:39:48.773Z,19.40
2019-04-25T18:42:34.552Z,20.25
2019-04-25T18:45:02.245Z,20.75
2019-04-25T18:47:29.651Z,29.00
2019-04-25T18:49:56.645Z,19.57
2019-04-25T18:52:31.730Z,23.98
2019-04-25T18:55:17.126Z,23.57
2019-04-25T18:57:47.252Z,20.23
2019-04-25T19:00:16.438Z,19.57
2019-04-25T19:02:54.694Z,17.07
2019-04-25T19:05:23.865Z,23.73
2019-04-25T19:07:51.607Z,23.67
2019-04-25T19:10:19.589Z,22.62
2019-04-25T19:12:47.358Z,19.27
2019-04-25T19:15:14.609Z,17.75
2019-04-25T19:17:41.660Z,19.80
2019-04-25T19:20:10.053Z,19.55
2019-04-25T19:22:37.352Z,20.08
2019-04-25T19:25:05.181Z,21.00
2019-04-25T19:27:32.353Z,24.67
2019-04-25T19:29:59.122Z,28.95
2019-04-25T19:32:26.928Z,21.17
2019-04-25T19:34:53.956Z,20.97
2019-04-25T19:37:23.487Z,25.68
2019-04-25T19:39:55.497Z,25.02
2019-04-25T19:42:24.894Z,30.88
2019-04-25T19:44:52.823Z,26.27
2019-04-25T19:47:20.784Z,21.85
2019-04-25T19:49:48.006Z,27.58
2019-04-25T19:52:15.107Z,24.35
2019-04-25T19:54:43.173Z,33.33
2019-04-25T19:57:10.659Z,20.97
2019-04-25T19:59:37.658Z,23.92
2019-04-25T20:02:22.326Z,27.40
2019-04-25T20:04:51.324Z,18.50
2019-04-25T20:07:26.597Z,23.00
2019-04-25T20:10:01.606Z,28.60
2019-04-25T20:12:31.049Z,25.32
2019-04-25T20:14:58.318Z,26.82
2019-04-25T20:17:26.908Z,22.07
2019-04-25T20:19:53.943Z,18.45
2019-04-25T20:22:21.117Z,19.62
2019-04-25T20:24:48.421Z,19.48
2019-04-25T20:27:15.582Z,20.88
2019-04-25T20:29:42.615Z,24.70
2019-04-25T20:32:09.629Z,22.42
2019-04-25T20:34:36.689Z,25.37
2019-04-25T20:37:03.576Z,21.62
2019-04-25T20:39:30.905Z,28.50
2019-04-25T20:41:57.800Z,26.93
2019-04-25T20:44:24.593Z,22.25
2019-04-25T20:46:52.843Z,28.23
2019-04-25T20:49:19.588Z,24.37
2019-04-25T20:51:47.153Z,25.88
2019-04-25T20:54:14.182Z,24.23
2019-04-25T20:56:41.160Z,25.97
2019-04-25T20:59:08.205Z,26.73
2019-04-25T21:01:35.324Z,33.67
2019-04-25T21:04:12.794Z,21.90
2019-04-25T21:06:33.202Z,33.02
2019-04-25T21:08:59.995Z,27.10
2019-04-25T21:11:27.820Z,26.85
2019-04-25T21:14:02.773Z,25.20
2019-04-25T21:16:50.471Z,19.70
2019-04-25T21:19:19.858Z,27.55
2019-04-25T21:21:46.726Z,30.32
2019-04-25T21:24:13.761Z,27.58
2019-04-25T21:26:41.006Z,23.77
2019-04-25T21:29:10.162Z,27.42
2019-04-25T21:31:37.608Z,25.72
2019-04-25T21:34:04.596Z,32.73
2019-04-25T21:36:31.971Z,21.70
2019-04-25T21:38:59.822Z,21.68
2019-04-25T21:41:38.242Z,21.12
2019-04-25T21:44:06.751Z,27.70
2019-04-25T21:46:33.946Z,25.27
2019-04-25T21:49:01.754Z,18.42
2019-04-25T21:51:31.663Z,28.62
2019-04-25T21:54:01.368Z,28.42
2019-04-25T21:56:28.718Z,23.50
2019-04-25T21:58:55.702Z,33.95
2019-04-25T22:01:25.194Z,27.05
2019-04-25T22:03:52.274Z,30.32
2019-04-25T22:06:19.829Z,31.15
2019-04-25T22:08:46.753Z,27.90
2019-04-25T22:11:13.764Z,24.05
2019-04-25T22:13:43.043Z,25.12
2019-04-25T22:16:10.472Z,27.32
2019-04-25T22:18:37.878Z,32.17
2019-04-25T22:21:05.031Z,23.42
2019-04-25T22:23:32.306Z,19.25
2019-04-25T22:26:01.387Z,21.85
2019-04-25T22:28:29.497Z,23.52
2019-04-25T22:30:59.201Z,25.97
2019-04-25T22:33:34.224Z,19.32
2019-04-25T22:36:08.843Z,22.10
2019-04-25T22:38:35.741Z,19.92
2019-04-25T22:41:03.568Z,26.50
2019-04-25T22:43:32.966Z,25.00
2019-04-25T22:46:00.776Z,28.38
2019-04-25T22:48:46.936Z,30.15
2019-04-25T22:51:14.026Z,24.60
2019-04-25T22:53:41.086Z,28.05
2019-04-25T22:56:08.125Z,24.72
2019-04-25T22:58:34.939Z,21.42
2019-04-25T23:01:04.998Z,32.33
2019-04-25T23:03:49.384Z,25.35
2019-04-25T23:06:16.637Z,23.92
2019-04-25T23:08:43.499Z,23.15
2019-04-25T23:11:10.620Z,21.93
2019-04-25T23:13:37.537Z,23.73
2019-04-25T23:16:05.102Z,24.75
2019-04-25T23:18:32.284Z,24.80
2019-04-25T23:20:59.406Z,26.90
2019-04-25T23:23:26.519Z,26.40
2019-04-25T23:25:55.481Z,22.77
2019-04-25T23:28:24.632Z,23.40
2019-04-25T23:30:59.635Z,33.60
2019-04-25T23:33:26.529Z,25.02
2019-04-25T23:35:53.600Z,23.15
2019-04-25T23:38:20.679Z,20.62
2019-04-25T23:40:47.987Z,23.83
2019-04-25T23:43:15.840Z,22.73
2019-04-25T23:45:42.941Z,20.97
2019-04-25T23:48:10.372Z,22.20
2019-04-25T23:50:37.167Z,21.23
2019-04-25T23:53:04.155Z,23.25
2019-04-25T23:55:31.355Z,22.20
2019-04-25T23:57:58.203Z,27.13
